Tiempo atmosférico en la estación meteorológica de Esterri d?Àneu, Lleida (940 m.)



Fecha
DESCASC
Temp. máxima en grados centígrados (hora)
DESCASC
Temp. mínima en grados centígrados (hora)
DESCASC
Temp. media en grados centígrados
DESCASC
Racha de viento máxima en m/sg (hora)
DESCASC
Velocidad máxima media en intervalos de 10 minutos(hora)
DESCASC
Precipitaciones diarias en mm
DESCASC
Precipitaciones de 00:00 a 06:00 en mm
DESCASC
Precipitaciones de 06:00 a 12:00 en mm
DESCASC
Precipitaciones de 12:00 a 18:00 en mm
DESCASC
Precipitaciones de 18:00 a 24:00 en mm
DESCASC

Gráficas

Temp. máximas Temp. mínimas Temp. medias Precipitaciones Rachas de viento máximas Velocidades máximas media en intervalos de 10 minutos

Datos horarios

Fecha y hora oficial Temperatura (ºC) Velocidad del viento (km/h) Dirección del viento Racha (km/h) Dirección de racha Precipitación (mm) Presión (hPa) Tendencia (hPa) Humedad (%)
2018-10-19 23:00:00 10.9 0 Calma 6 Oeste 0 -- -- 98
2018-10-19 22:00:00 11 0 Calma 5 Oeste 0 -- -- 96
2018-10-19 21:00:00 11.9 0 Calma 6 Sur 0 -- -- 95
2018-10-19 20:00:00 13.2 2 Nordeste 7 Nordeste 0 -- -- 94
2018-10-19 19:00:00 14.5 2 Nordeste 15 Nordeste 0 -- -- 91
2018-10-19 18:00:00 16.7 4 Norte 13 Nordeste 0.6 -- -- 80
2018-10-19 17:00:00 17.4 0 Calma 3 Sudeste 0 -- -- 73
2018-10-19 16:00:00 17.4 0 Calma 4 Sur 0 -- -- 70
2018-10-19 15:00:00 17.4 2 Sur 6 Este 0 -- -- 68
2018-10-19 14:00:00 17 3 Sur 6 Sudeste 0 -- -- 71
2018-10-19 13:00:00 15.2 3 Oeste 6 Sudoeste 0 -- -- 74
2018-10-19 12:00:00 13.3 0 Calma 4 Sudeste 0 -- -- 88
2018-10-19 11:00:00 10.7 0 Calma 4 Noroeste 0 -- -- 100
2018-10-19 10:00:00 8.9 0 Calma 2 Sur 0 -- -- 100
2018-10-19 09:00:00 7.6 0 Calma 4 Sudoeste 0 -- -- 100
2018-10-19 08:00:00 6.8 2 Sudoeste 5 Sur 0 -- -- 100
2018-10-19 07:00:00 7.2 0 Calma 4 Oeste 1 -- -- 100
2018-10-19 06:00:00 7.9 0 Calma 4 Sudeste 0 -- -- 98
2018-10-19 05:00:00 8.8 0 Calma 4 Sur 0 -- -- 97
2018-10-19 04:00:00 9.5 0 Calma 6 Oeste 0 -- -- 98
2018-10-19 03:00:00 9.3 0 Calma 3 Oeste 0 -- -- 99
2018-10-19 02:00:00 9 2 Sur 4 Noroeste 0 -- -- 99
2018-10-19 01:00:00 8.7 0 Calma 4 Sur 0 -- -- 97
2018-10-19 00:00:00 9.5 0 Calma 4 Noroeste 0 -- -- 96
2018-10-18 23:00:00 10.3 0 Calma 4 Este 0 -- -- 95
2018-10-18 22:00:00 11.1 0 Calma 3 Oeste 0 -- -- 92
2018-10-18 21:00:00 12.1 0 Calma 4 Sudeste 0 -- -- 90
2018-10-18 20:00:00 12.9 0 Calma 9 Norte 0 -- -- 87
2018-10-18 19:00:00 14.3 4 Nordeste 8 Nordeste 0.8 -- -- 80
2018-10-18 18:00:00 17.3 4 Norte 19 Norte 0 -- -- 64
2018-10-18 17:00:00 17.5 3 Sur 6 Sur 0 -- -- 73
2018-10-18 16:00:00 17.2 0 Calma 8 Sur 0 -- -- 75
2018-10-18 15:00:00 16.6 3 Oeste 6 Sudoeste 0 -- -- 77
2018-10-18 14:00:00 14.7 2 Sur 4 Sur 0 -- -- 89
2018-10-18 13:00:00 14 0 Calma 4 Sur 0 -- -- 89
2018-10-18 12:00:00 12.9 0 Calma 4 Oeste 0 -- -- 92
2018-10-18 11:00:00 11 2 Sur 5 Sudeste 0 -- -- 100
2018-10-18 10:00:00 9.1 0 Calma 3 Sur 0 -- -- 100
2018-10-18 09:00:00 8 0 Calma 4 Oeste 0.2 -- -- 100
2018-10-18 08:00:00 7.6 0 Calma 5 Sudoeste 0 -- -- 100
2018-10-18 07:00:00 7.5 0 Calma 5 Oeste 1 -- -- 100
2018-10-18 06:00:00 7.3 0 Calma 2 Norte 0 -- -- 100
2018-10-18 05:00:00 7.5 0 Calma 3 Sur 0 -- -- 99
2018-10-18 04:00:00 7.9 0 Calma 2 Sudoeste 0 -- -- 99
2018-10-18 03:00:00 8.5 0 Calma 4 Sudoeste 0 -- -- 98
2018-10-18 02:00:00 9.3 0 Calma 3 Sur 0 -- -- 99
2018-10-18 01:00:00 9.9 0 Calma 3 Sudoeste 0 -- -- 99
2018-10-18 00:00:00 10.1 0 Calma 4 Sur 0.4 -- -- 99
2018-10-17 23:00:00 10.7 0 Calma 4 Sudeste 0 -- -- 95
2018-10-17 22:00:00 10.6 0 Calma 4 Noroeste 0 -- -- 93
2018-10-17 21:00:00 11.1 0 Calma 7 Norte 0 -- -- 91
2018-10-17 20:00:00 12.6 3 Norte 8 Norte 0 -- -- 84
2018-10-17 19:00:00 13.9 3 Nordeste 8 Noroeste 0.6 -- -- 81
2018-10-17 18:00:00 18.3 2 Sudeste 10 Sur 0 -- -- 61
2018-10-17 17:00:00 19.6 5 Sur 15 Sudoeste 0 -- -- 54
2018-10-17 16:00:00 20.2 6 Sur 17 Sudoeste 0 -- -- 50
2018-10-17 15:00:00 19 6 Sur 12 Sudeste 0 -- -- 52
2018-10-17 14:00:00 16.5 3 Oeste 8 Sur 0 -- -- 67
2018-10-17 13:00:00 13.9 2 Sudoeste 5 Sur 0 -- -- 79
2018-10-17 12:00:00 12.3 3 Sudeste 6 Sudeste 0 -- -- 86
2018-10-17 11:00:00 8.8 0 Calma 3 Sudoeste 0 -- -- 100
2018-10-17 10:00:00 8 0 Calma 2 Sur 0 -- -- 100
2018-10-17 09:00:00 8 0 Calma 2 Sudeste 0 -- -- 100
2018-10-17 08:00:00 8.3 0 Calma 3 Noroeste 0 -- -- 100
2018-10-17 07:00:00 8.3 0 Calma 3 Sudoeste 0.6 -- -- 100
2018-10-17 06:00:00 8.5 0 Calma 3 Sudoeste 0 -- -- 100
2018-10-17 05:00:00 8.3 0 Calma 3 Sudeste 0 -- -- 100
2018-10-17 04:00:00 8.2 0 Calma 3 Sur 0 -- -- 99
2018-10-17 03:00:00 9.1 0 Calma 3 Sur 0 -- -- 98
2018-10-17 02:00:00 10 0 Calma 4 Nordeste 0 -- -- 99
2018-10-17 01:00:00 10.3 0 Calma 4 Sudeste 0 -- -- 99
2018-10-17 00:00:00 10.4 0 Calma 2 Noroeste 0 -- -- 99
2018-10-16 23:00:00 10.2 0 Calma 2 Sur 0.2 -- -- 98
2018-10-16 22:00:00 10.8 0 Calma 2 Sur 0 -- -- 96
2018-10-16 21:00:00 12.1 0 Calma 2 Sudeste 0 -- -- 93
2018-10-16 20:00:00 13 2 Sur 8 Nordeste 0 -- -- 92
2018-10-16 19:00:00 13.6 4 Nordeste 11 Norte 0.8 -- -- 83
2018-10-16 18:00:00 16.4 0 Calma 6 Oeste 0 -- -- 72
2018-10-16 17:00:00 16.6 2 Sudeste 6 Sur 0 -- -- 67
2018-10-16 16:00:00 16.9 2 Sudeste 5 Sur 0 -- -- 62
2018-10-16 15:00:00 17.1 2 Sur 8 Sur 0 -- -- 55
2018-10-16 14:00:00 15.5 3 Sudoeste 9 Sur 0 -- -- 66
2018-10-16 13:00:00 13.3 3 Sudeste 7 Sudeste 0 -- -- 72
2018-10-16 12:00:00 10.6 0 Calma 6 Sur 0 -- -- 88
2018-10-16 11:00:00 8 2 Sudeste 5 Sudeste 0 -- -- 100
2018-10-16 10:00:00 5.7 0 Calma 3 Sur 0 -- -- 100
2018-10-16 09:00:00 4.9 0 Calma 3 Noroeste 0 -- -- 100
2018-10-16 08:00:00 5.3 0 Calma 3 Sur 0 -- -- 100
2018-10-16 07:00:00 6.3 0 Calma 3 Noroeste 1 -- -- 100
2018-10-16 06:00:00 7.4 0 Calma 3 Sur 0 -- -- 99
2018-10-16 05:00:00 8.3 0 Calma 4 Noroeste 0 -- -- 98
2018-10-16 04:00:00 9 0 Calma 0 Calma 0 -- -- 100
2018-10-16 03:00:00 9.1 0 Calma 3 Noroeste 0 -- -- 99
2018-10-16 02:00:00 9.3 0 Calma 6 Noroeste 0 -- -- 99
2018-10-16 01:00:00 9.7 0 Calma 4 Norte 0 -- -- 99
2018-10-16 00:00:00 10 0 Calma 7 Norte 0 -- -- 98
2018-10-15 23:00:00 10.7 0 Calma 4 Oeste 0 -- -- 98
2018-10-15 22:00:00 10.7 0 Calma 7 Norte 0 -- -- 97
2018-10-15 21:00:00 10.9 0 Calma 3 Norte 0 -- -- 97
2018-10-15 20:00:00 11.4 0 Calma 6 Sudeste 0 -- -- 96
2018-10-15 19:00:00 12 3 Sudeste 12 Sur 0.8 -- -- 95
2018-10-15 18:00:00 13.7 6 Sudeste 12 Sudeste 0 -- -- 82
2018-10-15 17:00:00 14.2 4 Sudeste 13 Sur 0 -- -- 80
2018-10-15 16:00:00 14.7 3 Sudeste 10 Sur 0 -- -- 76
2018-10-15 15:00:00 13.7 3 Noroeste 7 Norte 0 -- -- 82
2018-10-15 14:00:00 12.5 3 Sur 5 Sur 0 -- -- 87
2018-10-15 13:00:00 11.2 0 Calma 5 Sur 0 -- -- 91
2018-10-15 12:00:00 9.9 0 Calma 5 Sur 0 -- -- 100
2018-10-15 11:00:00 8.9 0 Calma 3 Sudoeste 0.2 -- -- 100
2018-10-15 10:00:00 8.2 0 Calma 4 Sur 0 -- -- 100
2018-10-15 09:00:00 7.8 0 Calma 3 Oeste 0.4 -- -- 100
2018-10-15 08:00:00 7.7 0 Calma 5 Noroeste 0.2 -- -- 100
2018-10-15 07:00:00 7.7 0 Calma 4 Sudeste 1.2 -- -- 100
2018-10-15 06:00:00 7.8 0 Calma 12 Nordeste 1.4 -- -- 97
2018-10-15 05:00:00 8 2 Sur 8 Nordeste 4.2 -- -- 95
2018-10-15 04:00:00 8.4 3 Sudeste 17 Nordeste 3.8 -- -- 93
2018-10-15 03:00:00 8.8 7 Nordeste 15 Este 7.4 -- -- 98
2018-10-15 02:00:00 9 0 Calma 9 Sudoeste 7.6 -- -- 98
2018-10-15 01:00:00 9.5 4 Nordeste 17 Norte 5.8 -- -- 94
2018-10-15 00:00:00 10.2 3 Norte 7 Nordeste 8.4 -- -- 100
2018-10-14 23:00:00 10.7 0 Calma 6 Sudeste 5.4 -- -- 96
2018-10-14 22:00:00 11.9 0 Calma 11 Sudeste 5.2 -- -- 97
2018-10-14 21:00:00 12.8 4 Sudeste 12 Este 5 -- -- 97
2018-10-14 20:00:00 13.4 2 Nordeste 8 Oeste 2 -- -- 97
2018-10-14 19:00:00 13.8 3 Este 11 Oeste 1.2 -- -- 98
2018-10-14 18:00:00 15.4 0 Calma 21 Sudoeste 0.8 -- -- 86
2018-10-14 17:00:00 17.9 5 Sur 23 Sur 0 -- -- 67
2018-10-14 16:00:00 18.2 8 Sur 23 Sur 0 -- -- 63
2018-10-14 15:00:00 17.3 3 Sur 19 Sudeste 0 -- -- 71
2018-10-14 14:00:00 17.7 8 Sur 21 Sur 0 -- -- 68
2018-10-14 13:00:00 16.6 3 Sur 12 Sur 0.2 -- -- 81
2018-10-14 12:00:00 17.4 6 Sur 19 Sur 0 -- -- 69
2018-10-14 11:00:00 16.3 4 Sudoeste 10 Sur 0 -- -- 78
2018-10-14 10:00:00 15.2 0 Calma 8 Sudeste 0 -- -- 90
2018-10-14 09:00:00 14.5 4 Sudeste 15 Este 0.2 -- -- 92
2018-10-14 08:00:00 14 3 Sudeste 9 Sudoeste 0 -- -- 94
2018-10-14 07:00:00 13.8 4 Sur 11 Sudoeste 1 -- -- 98
2018-10-14 06:00:00 15 0 Calma 6 Sudeste 0 -- -- 89
2018-10-14 05:00:00 15.1 0 Calma 11 Sudeste 0 -- -- 89
2018-10-14 04:00:00 15.7 3 Sur 11 Sudoeste 0 -- -- 85
2018-10-14 03:00:00 16.2 3 Sur 12 Este 0 -- -- 80
2018-10-14 02:00:00 16 6 Sudeste 12 Sudeste 0 -- -- 81
2018-10-14 01:00:00 15.2 0 Calma 7 Este 0 -- -- 84
2018-10-14 00:00:00 15.7 0 Calma 4 Nordeste 0 -- -- 81
2018-10-13 23:00:00 17 2 Norte 6 Noroeste 0 -- -- 75
2018-10-13 22:00:00 18 2 Sudoeste 12 Sur 0 -- -- 69
2018-10-13 21:00:00 17.7 0 Calma 10 Sur 0 -- -- 75
2018-10-13 20:00:00 17.9 3 Sudeste 11 Sur 0 -- -- 70
2018-10-13 19:00:00 17.7 3 Oeste 12 Sur 0.6 -- -- 77
2018-10-13 18:00:00 20.8 4 Sur 15 Sur 0 -- -- 61
2018-10-13 17:00:00 22.4 8 Sur 21 Sur 0 -- -- 57
2018-10-13 16:00:00 22.4 7 Sur 19 Sur 0 -- -- 57
2018-10-13 15:00:00 22.4 8 Sur 21 Sur 0 -- -- 58
2018-10-13 14:00:00 20.3 8 Sur 19 Sur 0 -- -- 64
2018-10-13 13:00:00 17 4 Sur 7 Sur 0 -- -- 78
2018-10-13 12:00:00 13.8 0 Calma 6 Sur 0 -- -- 95
2018-10-13 11:00:00 10.9 0 Calma 3 Este 0 -- -- 100
2018-10-13 10:00:00 8 0 Calma 3 Sur 0 -- -- 100
2018-10-13 09:00:00 7.9 0 Calma 3 Sur 0 -- -- 100
2018-10-13 08:00:00 8.7 0 Calma 0 Calma 0 -- -- 100
2018-10-13 07:00:00 9.7 0 Calma 2 Sudoeste 1 -- -- 100
2018-10-13 06:00:00 9.8 0 Calma 3 Sudoeste 0 -- -- 100
2018-10-13 05:00:00 9.4 0 Calma 2 Sudeste 0 -- -- 99
2018-10-13 04:00:00 9.1 0 Calma 2 Sudeste 0 -- -- 98
2018-10-13 03:00:00 9.6 0 Calma 3 Sur 0 -- -- 97
2018-10-13 02:00:00 10.1 0 Calma 3 Sudoeste 0 -- -- 98
2018-10-13 01:00:00 10.1 0 Calma 5 Sur 0 -- -- 97
2018-10-13 00:00:00 10.8 0 Calma 2 Sur 0 -- -- 96
2018-10-12 23:00:00 11.7 0 Calma 3 Sur 0 -- -- 95
2018-10-12 22:00:00 12.6 0 Calma 3 Sur 0 -- -- 94
2018-10-12 21:00:00 13.9 0 Calma 6 Norte 0 -- -- 89
2018-10-12 20:00:00 15.8 0 Calma 8 Noroeste 0 -- -- 84
2018-10-12 19:00:00 17.2 4 Norte 8 Norte 1 -- -- 80
2018-10-12 18:00:00 22.1 0 Calma 11 Sur 0 -- -- 59
2018-10-12 17:00:00 22.3 5 Sur 18 Sur 0 -- -- 59
2018-10-12 16:00:00 22.9 8 Sur 20 Sudoeste 0 -- -- 55
2018-10-12 15:00:00 22 8 Sur 21 Sur 0 -- -- 59
2018-10-12 14:00:00 19.5 4 Sur 15 Sudeste 0 -- -- 71
2018-10-12 13:00:00 16.6 2 Sur 6 Sur 0 -- -- 79
2018-10-12 12:00:00 14.7 2 Sudeste 7 Sudoeste 0 -- -- 88
2018-10-12 11:00:00 11.7 2 Sur 4 Sur 0 -- -- 100
2018-10-12 10:00:00 9.6 0 Calma -- -- 0 -- -- 100
2018-10-12 09:00:00 8.4 0 Calma -- -- 0 -- -- 100
2018-10-12 08:00:00 8.6 0 Calma 2 Sur 0 -- -- 100
2018-10-12 07:00:00 9.6 0 Calma 5 Sur 1 -- -- 100
2018-10-12 06:00:00 10.6 0 Calma 4 Sudoeste 0 -- -- 99
2018-10-12 05:00:00 11.5 0 Calma 6 Sur 0 -- -- 98
2018-10-12 04:00:00 11.8 0 Calma 5 Sur 0 -- -- 98
2018-10-12 03:00:00 11.8 0 Calma 5 Noroeste 0 -- -- 99
2018-10-12 02:00:00 11.7 0 Calma 4 Sudoeste 0 -- -- 99
2018-10-12 01:00:00 12.2 0 Calma 4 Norte 0 -- -- 99
2018-10-12 00:00:00 12.6 2 Nordeste 7 Sur 0.6 -- -- 100
2018-10-11 23:00:00 13 0 Calma 5 Sur 0 -- -- 96
2018-10-11 22:00:00 13.4 0 Calma 5 Norte 0 -- -- 95
2018-10-11 21:00:00 13.9 2 Sudoeste 7 Norte 0 -- -- 93
2018-10-11 20:00:00 14.1 0 Calma 8 Sur 0 -- -- 97
2018-10-11 19:00:00 14.5 0 Calma 8 Noroeste 0.8 -- -- 99
2018-10-11 18:00:00 16 0 Calma 7 Noroeste 0 -- -- 88
2018-10-11 17:00:00 16.9 0 Calma 4 Norte 0 -- -- 83
2018-10-11 16:00:00 16.9 2 Sudoeste 10 Este 0 -- -- 78
2018-10-11 15:00:00 16.3 0 Calma 6 Oeste 0 -- -- 76
2018-10-11 14:00:00 14.7 0 Calma 6 Sur 0 -- -- 81
2018-10-11 13:00:00 13.1 0 Calma 6 Sudoeste 0 -- -- 84
2018-10-11 12:00:00 11.9 2 Sudoeste 7 Este 0 -- -- 89
2018-10-11 11:00:00 9.6 0 Calma 5 Sur 0 -- -- 100
2018-10-11 10:00:00 8.6 0 Calma 7 Nordeste 0 -- -- 100
2018-10-11 09:00:00 8.4 0 Calma 7 Norte 0 -- -- 100
2018-10-11 08:00:00 8.7 0 Calma 3 Sur 0 -- -- 100
2018-10-11 07:00:00 8.8 2 Sur 4 Sur 1.2 -- -- 100
2018-10-11 06:00:00 8.9 0 Calma 2 Oeste 0 -- -- 100
2018-10-11 05:00:00 8.8 0 Calma 5 Sur 0 -- -- 100
2018-10-11 04:00:00 8.7 0 Calma 6 Noroeste 0 -- -- 100
2018-10-11 03:00:00 8.8 2 Sur 6 Sudeste 0 -- -- 100
2018-10-11 02:00:00 8.5 0 Calma 6 Oeste 0 -- -- 99
2018-10-11 01:00:00 9 0 Calma 5 Sudeste 0 -- -- 99
2018-10-11 00:00:00 9.6 0 Calma 6 Nordeste 0 -- -- 98
2018-10-10 23:00:00 10.6 0 Calma 4 Oeste 0 -- -- 98
2018-10-10 22:00:00 11.4 0 Calma 9 Sudoeste 1.4 -- -- 97
2018-10-10 21:00:00 12.2 3 Nordeste 6 Norte 0.2 -- -- 94
2018-10-10 20:00:00 12.5 4 Sudeste 12 Este 0 -- -- 89
2018-10-10 19:00:00 13.3 2 Sur 8 Norte 1.2 -- -- 97
2018-10-10 18:00:00 16.1 4 Sudoeste 10 Este 0 -- -- 70
2018-10-10 17:00:00 16.5 3 Sur 27 Sur 0 -- -- 67
2018-10-10 16:00:00 16.9 9 Sur 25 Sur 0 -- -- 61
2018-10-10 15:00:00 16.6 5 Sur 21 Sur 0 -- -- 66
2018-10-10 14:00:00 16.9 7 Sur 21 Sudoeste 0 -- -- 66
2018-10-10 13:00:00 14.7 4 Sudoeste 8 Sudoeste 0 -- -- 87
2018-10-10 12:00:00 12.8 0 Calma 5 Sur 0 -- -- 97
2018-10-10 11:00:00 11.5 0 Calma 2 Sur 0 -- -- 100
2018-10-10 10:00:00 10.7 0 Calma 4 Este 0 -- -- 100
2018-10-10 09:00:00 10.3 0 Calma 3 Oeste 0.4 -- -- 100
2018-10-10 08:00:00 10.2 0 Calma 3 Este 1 -- -- 100
2018-10-10 07:00:00 10.3 0 Calma 3 Noroeste 1.8 -- -- 100
2018-10-10 06:00:00 10.4 0 Calma 2 Sur 0 -- -- 99
2018-10-10 05:00:00 10.5 0 Calma 4 Este 0 -- -- 99
2018-10-10 04:00:00 10.7 0 Calma 5 Oeste 0 -- -- 99
2018-10-10 03:00:00 10.8 0 Calma 4 Oeste 1.8 -- -- 98
2018-10-10 02:00:00 10.9 0 Calma 4 Sudoeste 4 -- -- 98
2018-10-10 01:00:00 11.1 0 Calma 4 Sur 0.2 -- -- 96
2018-10-10 00:00:00 11.2 0 Calma 5 Noroeste 0.6 -- -- 95
2018-10-09 23:00:00 11.6 3 Noroeste 6 Noroeste 0.6 -- -- 91
2018-10-09 22:00:00 11.9 0 Calma 5 Norte 0 -- -- 82
2018-10-09 21:00:00 12.1 0 Calma 6 Nordeste 0 -- -- 79
2018-10-09 20:00:00 12.9 2 Norte 8 Sudeste 0 -- -- 74
2018-10-09 19:00:00 12.9 2 Sur 7 Sur 1 -- -- 76
2018-10-09 18:00:00 16.3 3 Sur 18 Sur 0 -- -- 50
2018-10-09 17:00:00 17.1 10 Sur 23 Sur 0 -- -- 50
2018-10-09 16:00:00 16.8 8 Sur 20 Sudoeste 0 -- -- 51
2018-10-09 15:00:00 15.9 4 Sur 18 Oeste 0 -- -- 56
2018-10-09 14:00:00 15.3 7 Sur 17 Sur 0 -- -- 60
2018-10-09 13:00:00 12.6 2 Sur 9 Oeste 0 -- -- 75
2018-10-09 12:00:00 10.2 0 Calma 8 Sur 0 -- -- 83
2018-10-09 11:00:00 8.1 0 Calma 5 Sudeste 0 -- -- 98
2018-10-09 10:00:00 6.6 2 Sudoeste 6 Sudoeste 0 -- -- 100
2018-10-09 09:00:00 5.2 0 Calma 4 Sur 0 -- -- 100
2018-10-09 08:00:00 5.3 3 Nordeste 5 Noroeste 0 -- -- 100
2018-10-09 07:00:00 5.3 0 Calma 4 Sur 1 -- -- 100
2018-10-09 06:00:00 6 0 Calma 5 Noroeste 0 -- -- 99
2018-10-09 05:00:00 5.8 0 Calma 4 Noroeste 0 -- -- 99
2018-10-09 04:00:00 5.5 0 Calma 3 Oeste 0.2 -- -- 99
2018-10-09 03:00:00 5.1 2 Norte 4 Noroeste 0 -- -- 100
2018-10-09 02:00:00 4.1 2 Este 5 Sudeste 0 -- -- 100
2018-10-09 01:00:00 4.2 0 Calma 4 Sudoeste 0 -- -- 100
2018-10-09 00:00:00 4.7 0 Calma 4 Noroeste 0.6 -- -- 98
2018-10-08 23:00:00 5.8 0 Calma 4 Sur 0 -- -- 93
2018-10-08 22:00:00 6.9 0 Calma 4 Noroeste 0 -- -- 91
2018-10-08 21:00:00 7.9 0 Calma 2 Sur 0 -- -- 87
2018-10-08 20:00:00 9.4 0 Calma 5 Este 0 -- -- 81
2018-10-08 19:00:00 10.7 0 Calma 17 Noroeste 0.4 -- -- 73
2018-10-08 18:00:00 14.3 7 Noroeste 23 Noroeste 0 -- -- 55
2018-10-08 17:00:00 14.6 7 Noroeste 23 Noroeste 0 -- -- 55
2018-10-08 16:00:00 16.9 9 Noroeste 23 Noroeste 0 -- -- 46
2018-10-08 15:00:00 16.4 10 Noroeste 23 Norte 0 -- -- 47
2018-10-08 14:00:00 14.9 7 Noroeste 18 Noroeste 0 -- -- 49
2018-10-08 13:00:00 14 9 Noroeste 22 Norte 0 -- -- 52
2018-10-08 12:00:00 11.4 5 Sudoeste 9 Sur 0 -- -- 78
2018-10-08 11:00:00 8.1 2 Sur 5 Sudeste 0 -- -- 97
2018-10-08 10:00:00 6.6 2 Sur 3 Sur 0 -- -- 100
2018-10-08 09:00:00 5 0 Calma 3 Sur 0 -- -- 100
2018-10-08 08:00:00 4.8 0 Calma 3 Sur 0 -- -- 100
2018-10-08 07:00:00 4.7 3 Sudoeste 6 Sudoeste 1 -- -- 99
2018-10-08 06:00:00 5.3 0 Calma 4 Sur 0 -- -- 97
2018-10-08 05:00:00 5.8 0 Calma 3 Sur 0 -- -- 96
2018-10-08 04:00:00 6.5 0 Calma 4 Sur 0 -- -- 96
2018-10-08 03:00:00 6.9 0 Calma 4 Sur 0 -- -- 97
2018-10-08 02:00:00 7.2 0 Calma 3 Sudeste 0 -- -- 96
2018-10-08 01:00:00 7.5 0 Calma 3 Noroeste 0 -- -- 96
2018-10-08 00:00:00 7.7 0 Calma 3 Noroeste 0.2 -- -- 94
2018-10-07 23:00:00 8.2 0 Calma 4 Sudeste 0 -- -- 93
2018-10-07 22:00:00 8.4 0 Calma 5 Sur 0 -- -- 91
2018-10-07 21:00:00 9 2 Sur 10 Sudeste 0 -- -- 89
2018-10-07 20:00:00 9.4 5 Sudeste 13 Sudeste 0 -- -- 84
2018-10-07 19:00:00 9.7 0 Calma 5 Sudeste 0.6 -- -- 81
2018-10-07 18:00:00 12.1 4 Sur 16 Noroeste 0 -- -- 62
2018-10-07 17:00:00 13.4 8 Norte 26 Norte 0 -- -- 52
2018-10-07 16:00:00 14.7 8 Noroeste 21 Norte 0 -- -- 45
2018-10-07 15:00:00 15.5 8 Norte 25 Norte 0 -- -- 46
2018-10-07 14:00:00 14.5 14 Norte 31 Norte 0 -- -- 43
2018-10-07 13:00:00 13.8 9 Norte 22 Norte 0 -- -- 46
2018-10-07 12:00:00 12.4 8 Norte 21 Norte 0 -- -- 47
2018-10-07 11:00:00 12 8 Noroeste 21 Norte 0.2 -- -- 49
2018-10-07 10:00:00 10.8 7 Norte 18 Norte 0 -- -- 59
2018-10-07 09:00:00 9 5 Norte 13 Nordeste 0 -- -- 71
2018-10-07 08:00:00 7.1 2 Nordeste 9 Nordeste 0 -- -- 89
2018-10-07 07:00:00 7.9 4 Nordeste 12 Noroeste 0.8 -- -- 85
2018-10-07 06:00:00 9.1 3 Nordeste 19 Nordeste 0 -- -- 74
2018-10-07 05:00:00 8.6 2 Sudeste 15 Sudeste 0 -- -- 87
2018-10-07 04:00:00 8.6 2 Este 33 Noroeste 1.2 -- -- 86
2018-10-07 03:00:00 8.9 4 Este 40 Noroeste 4 -- -- 81
2018-10-07 02:00:00 10.4 6 Nordeste 37 Norte 1.8 -- -- 79
2018-10-07 01:00:00 12.6 13 Nordeste 26 Nordeste 1.2 -- -- 78
2018-10-07 00:00:00 15.9 7 Sur 19 Sudeste 0 -- -- 71
2018-10-06 23:00:00 15.7 2 Norte 9 Norte 0 -- -- 74
2018-10-06 22:00:00 15.2 0 Calma 7 Noroeste 0 -- -- 76
2018-10-06 21:00:00 15.9 2 Norte 6 Sudeste 0 -- -- 72
2018-10-06 20:00:00 16.2 3 Norte 9 Noroeste 0 -- -- 71
2018-10-06 19:00:00 17.1 0 Calma 10 Sudoeste 0.6 -- -- 70
2018-10-06 18:00:00 21.2 4 Sur 22 Sur 0 -- -- 50
2018-10-06 17:00:00 20.9 8 Sur 23 Sur 0 -- -- 49
2018-10-06 16:00:00 21.1 4 Sur 18 Sur 0 -- -- 52
2018-10-06 15:00:00 22 8 Sur 18 Sur 0 -- -- 48
2018-10-06 14:00:00 18.6 2 Sudeste 10 Sur 0 -- -- 60
2018-10-06 13:00:00 16.2 3 Sur 8 Sur 0 -- -- 68
2018-10-06 12:00:00 13.4 2 Sur 6 Sur 0 -- -- 76
2018-10-06 11:00:00 10 3 Sur 5 Sudeste 0 -- -- 99
2018-10-06 10:00:00 6.4 0 Calma 2 Sudeste 0 -- -- 100
2018-10-06 09:00:00 4.4 0 Calma 3 Norte 0 -- -- 100
2018-10-06 08:00:00 4.4 0 Calma 3 Sur 0 -- -- 100
2018-10-06 07:00:00 5 0 Calma 3 Sur 1.2 -- -- 100
2018-10-06 06:00:00 5.5 0 Calma 2 Sur 0 -- -- 97
2018-10-06 05:00:00 6.1 0 Calma 2 Sur 0 -- -- 98
2018-10-06 04:00:00 6.6 0 Calma 2 Sur 0 -- -- 97
2018-10-06 03:00:00 7 0 Calma 4 Sur 0 -- -- 97
2018-10-06 02:00:00 7.7 0 Calma 4 Sur 0 -- -- 97
2018-10-06 01:00:00 8.2 0 Calma 4 Sur 0 -- -- 98
2018-10-06 00:00:00 8.9 0 Calma 4 Sudoeste 0.8 -- -- 97
2018-10-05 23:00:00 10.6 0 Calma 5 Sur 0 -- -- 88
2018-10-05 22:00:00 11.8 0 Calma 4 Sur 0 -- -- 85
2018-10-05 21:00:00 13.5 0 Calma 7 Norte 0 -- -- 78
2018-10-05 20:00:00 16 2 Norte 8 Nordeste 0 -- -- 72
2018-10-05 19:00:00 16.8 4 Norte 9 Norte 0.8 -- -- 70
2018-10-05 18:00:00 21.3 4 Sur 17 Sudoeste 0 -- -- 50
2018-10-05 17:00:00 23.3 6 Sur 18 Sur 0 -- -- 45
2018-10-05 16:00:00 23.3 8 Sur 17 Sur 0 -- -- 43
2018-10-05 15:00:00 22.5 9 Sur 18 Sur 0 -- -- 45
2018-10-05 14:00:00 19.1 3 Sur 9 Sur 0 -- -- 53
2018-10-05 13:00:00 16.3 3 Sur 8 Sur 0 -- -- 60
2018-10-05 12:00:00 13.1 3 Sur 5 Sudeste 0 -- -- 71
2018-10-05 11:00:00 9.5 0 Calma 4 Sudoeste 0 -- -- 87
2018-10-05 10:00:00 5.7 0 Calma 3 Sur 0 -- -- 100
2018-10-05 09:00:00 4 0 Calma 2 Sur 0 -- -- 100
2018-10-05 08:00:00 4 0 Calma 2 Sur 0 -- -- 100
2018-10-05 07:00:00 4.4 0 Calma 2 Noroeste 1.2 -- -- 100
2018-10-05 06:00:00 5.1 0 Calma 2 Oeste 0 -- -- 94
2018-10-05 05:00:00 5.5 0 Calma 2 Sur 0 -- -- 94
2018-10-05 04:00:00 6.1 0 Calma 2 Sur 0 -- -- 93
2018-10-05 03:00:00 6.7 0 Calma 2 Sur 0 -- -- 91
2018-10-05 02:00:00 7.3 0 Calma 2 Sudeste 0 -- -- 91
2018-10-05 01:00:00 8 0 Calma 2 Sur 0 -- -- 90
2018-10-05 00:00:00 8.8 0 Calma 3 Sur 0 -- -- 87
2018-10-04 23:00:00 9.9 0 Calma 3 Oeste 0 -- -- 84
2018-10-04 22:00:00 11 0 Calma 4 Este 0 -- -- 81
2018-10-04 21:00:00 13 0 Calma 6 Noroeste 0 -- -- 74
2018-10-04 20:00:00 15.7 0 Calma 11 Norte 0 -- -- 64
2018-10-04 19:00:00 17.2 3 Norte 6 Noroeste 0.4 -- -- 62
2018-10-04 18:00:00 23.7 3 Sur 15 Sudoeste 0 -- -- 37
2018-10-04 17:00:00 24.8 5 Sur 18 Sur 0 -- -- 32
2018-10-04 16:00:00 25 6 Sur 16 Sudoeste 0 -- -- 30
2018-10-04 15:00:00 23.5 6 Sur 14 Sur 0 -- -- 31
2018-10-04 14:00:00 19.1 3 Sur 7 Sur 0 -- -- 41
2018-10-04 13:00:00 16.6 5 Sur 9 Sudeste 0 -- -- 41
2018-10-04 12:00:00 12.9 0 Calma 5 Sur 0 -- -- 55
2018-10-04 11:00:00 8.9 2 Este 4 Sudeste 0 -- -- 71
2018-10-04 10:00:00 4.5 0 Calma 2 Sur 0 -- -- 97
2018-10-04 09:00:00 2.7 0 Calma 3 Sudoeste 0 -- -- 97
2018-10-04 08:00:00 2.7 0 Calma 3 Sur 0 -- -- 98
2018-10-04 07:00:00 3 0 Calma 2 Sur 1 -- -- 97
2018-10-04 06:00:00 4.1 0 Calma 2 Sur 0 -- -- 89
2018-10-04 05:00:00 4.7 0 Calma 4 Noroeste 0 -- -- 86
2018-10-04 04:00:00 5.8 0 Calma 8 Sur 0 -- -- 84
2018-10-04 03:00:00 7.1 3 Sudoeste 7 Sur 0 -- -- 78
2018-10-04 02:00:00 8.1 0 Calma 4 Sur 0 -- -- 75
2018-10-04 01:00:00 9.7 2 Nordeste 7 Sudeste 0 -- -- 67
2018-10-04 00:00:00 10.8 0 Calma 5 Oeste 0 -- -- 64
2018-10-03 23:00:00 13.8 0 Calma 14 Este 0 -- -- 54
2018-10-03 22:00:00 15 5 Nordeste 14 Nordeste 0 -- -- 51
2018-10-03 21:00:00 15.4 3 Sudeste 17 Oeste 0 -- -- 51
2018-10-03 20:00:00 16.2 4 Nordeste 19 Norte 0 -- -- 46
2018-10-03 19:00:00 16.4 8 Noroeste 19 Norte 0.2 -- -- 47
2018-10-03 18:00:00 20.9 10 Nordeste 32 Nordeste 0 -- -- 29
2018-10-03 17:00:00 21.4 13 Norte 33 Nordeste 0 -- -- 29
2018-10-03 16:00:00 21.6 12 Nordeste 39 Norte 0 -- -- 31
2018-10-03 15:00:00 21.4 14 Norte 35 Nordeste 0 -- -- 34
2018-10-03 14:00:00 20.9 10 Norte 35 Norte 0 -- -- 37
2018-10-03 13:00:00 20.7 14 Noroeste 36 Norte 0 -- -- 37
2018-10-03 12:00:00 20.1 9 Norte 32 Oeste 0 -- -- 41
2018-10-03 11:00:00 19.3 10 Noroeste 25 Norte 0 -- -- 43
2018-10-03 10:00:00 17 8 Norte 20 Norte 0 -- -- 52
2018-10-03 09:00:00 15.8 5 Norte 25 Noroeste 0 -- -- 56
2018-10-03 08:00:00 16.4 13 Norte 36 Norte 0 -- -- 53
2018-10-03 07:00:00 15.4 13 Norte 30 Norte 0.6 -- -- 60
2018-10-03 06:00:00 15.6 7 Norte 25 Norte 0 -- -- 59
2018-10-03 05:00:00 15 7 Norte 19 Nordeste 0 -- -- 62
2018-10-03 04:00:00 15 11 Nordeste 22 Norte 0 -- -- 63
2018-10-03 03:00:00 15 10 Nordeste 19 Norte 0 -- -- 59
2018-10-03 02:00:00 14.6 9 Nordeste 18 Noroeste 0 -- -- 58
2018-10-03 01:00:00 14.3 6 Norte 20 Norte 0 -- -- 60
2018-10-03 00:00:00 14.5 7 Norte 19 Norte 0.4 -- -- 66
2018-10-02 23:00:00 15.6 5 Norte 16 Noroeste 0 -- -- 47
2018-10-02 22:00:00 15.6 5 Norte 19 Norte 0 -- -- 49
2018-10-02 21:00:00 14.8 8 Norte 21 Noroeste 0 -- -- 46
2018-10-02 20:00:00 15.7 15 Norte 33 Norte 0 -- -- 45
2018-10-02 19:00:00 15.2 8 Norte 32 Noroeste 0.2 -- -- 48
2018-10-02 18:00:00 17.3 9 Norte 32 Nordeste 0 -- -- 36
2018-10-02 17:00:00 17.8 14 Nordeste 32 Nordeste 0 -- -- 30
2018-10-02 16:00:00 19.3 9 Norte 40 Nordeste 0 -- -- 29
2018-10-02 15:00:00 18.7 21 Norte 41 Norte 0 -- -- 27
2018-10-02 14:00:00 18.4 18 Norte 44 Nordeste 0 -- -- 23
2018-10-02 13:00:00 17.8 14 Norte 39 Norte 0 -- -- 13
2018-10-02 12:00:00 16.5 16 Norte 41 Noroeste 0 -- -- 9
2018-10-02 11:00:00 16 19 Noroeste 50 Noroeste 0 -- -- 12
2018-10-02 10:00:00 -- 13 Noroeste 45 Oeste 0.4 -- -- --
2018-10-02 09:00:00 14.3 10 Norte 44 Noroeste 0 -- -- 9
2018-10-02 08:00:00 13.6 15 Noroeste 32 Oeste 0 -- -- 10
2018-10-02 07:00:00 11.9 14 Noroeste 33 Noroeste 0 -- -- 16
2018-10-02 06:00:00 11.8 11 Noroeste 31 Noroeste 0 -- -- 16
2018-10-02 05:00:00 9.9 7 Norte 26 Norte 0 -- -- 28
2018-10-02 04:00:00 8.9 6 Norte 37 Noroeste 0 -- -- 42
2018-10-02 03:00:00 9.1 12 Noroeste 45 Norte 0 -- -- 46
2018-10-02 02:00:00 9.2 14 Norte 38 Norte 0 -- -- 48
2018-10-02 01:00:00 9.5 14 Noroeste 35 Noroeste 0 -- -- 49
2018-10-02 00:00:00 9.8 12 Noroeste 30 Noroeste 0 -- -- 48
2018-10-01 23:00:00 9.8 5 Noroeste 24 Este 0 -- -- 47
2018-10-01 22:00:00 10.3 9 Norte 26 Noroeste 0 -- -- 46
2018-10-01 21:00:00 10.8 8 Norte 27 Nordeste 0 -- -- 42
2018-10-01 20:00:00 11.2 8 Norte 30 Noroeste 0 -- -- 44
2018-10-01 19:00:00 12.1 10 Norte 28 Norte 0 -- -- 42
2018-10-01 18:00:00 15.5 11 Norte 35 Noroeste 0 -- -- 34
2018-10-01 17:00:00 16.5 13 Norte 39 Noroeste 0 -- -- 31
2018-10-01 16:00:00 17.2 10 Norte 41 Norte 0 -- -- 29
2018-10-01 15:00:00 17.3 14 Noroeste 32 Noroeste 0 -- -- 26
2018-10-01 14:00:00 16.1 16 Noroeste 35 Noroeste 0 -- -- 30
2018-10-01 13:00:00 16 13 Norte 30 Norte 0 -- -- 32
2018-10-01 12:00:00 16 14 Noroeste 36 Norte 0 -- -- 26
2018-10-01 11:00:00 15.4 13 Noroeste 31 Noroeste 0 -- -- 24
2018-10-01 10:00:00 14.1 10 Noroeste 32 Norte 0 -- -- 27
2018-10-01 09:00:00 12 9 Norte 27 Noroeste 0 -- -- 39
2018-10-01 08:00:00 11.7 9 Norte 22 Noroeste 0 -- -- 37
2018-10-01 07:00:00 10.9 11 Norte 26 Nordeste 0 -- -- 41
2018-10-01 06:00:00 12.1 6 Nordeste 21 Nordeste 0 -- -- 43
2018-10-01 05:00:00 11.8 8 Norte 30 Norte 0 -- -- 53
2018-10-01 04:00:00 6.2 0 Calma 7 Oeste 0 -- -- 86
2018-10-01 03:00:00 7.1 0 Calma 4 Sudoeste 0 -- -- 84
2018-10-01 02:00:00 8.3 2 Sur 6 Noroeste 0 -- -- 79
2018-10-01 01:00:00 9.5 0 Calma 5 Sur 0 -- -- 72
2018-10-01 00:00:00 10.9 0 Calma 7 Sur 0 -- -- 67
2018-09-30 23:00:00 14.2 3 Norte 17 Nordeste 0 -- -- 56
2018-09-30 22:00:00 15.9 6 Nordeste 14 Nordeste 0 -- -- 41
2018-09-30 21:00:00 17.1 7 Norte 24 Noroeste 0 -- -- 39
2018-09-30 20:00:00 17.5 6 Norte 23 Norte 0 -- -- 38
2018-09-30 19:00:00 18 9 Norte 26 Noroeste 0 -- -- 48
2018-09-30 18:00:00 22.4 7 Norte 22 Norte 0 -- -- 37
2018-09-30 17:00:00 22.9 6 Sur 10 Sur 0 -- -- 47
2018-09-30 16:00:00 22.6 4 Sur 15 Sur 0 -- -- 50
2018-09-30 15:00:00 21.9 6 Sur 18 Sudoeste 0 -- -- 47
2018-09-30 14:00:00 20 5 Sudoeste 15 Oeste 0 -- -- 55
2018-09-30 13:00:00 17.7 5 Sudeste 11 Sudeste 0 -- -- 71
2018-09-30 12:00:00 14.9 2 Noroeste 6 Oeste 0 -- -- 86
2018-09-30 11:00:00 12.4 2 Sur 5 Este 0 -- -- 100
2018-09-30 10:00:00 10.2 0 Calma 4 Sudeste 0 -- -- 100
2018-09-30 09:00:00 8.7 0 Calma 4 Oeste 0 -- -- 100
2018-09-30 08:00:00 8.6 0 Calma 3 Sudeste 0 -- -- 100
2018-09-30 07:00:00 9.3 0 Calma 5 Oeste 0 -- -- 100
2018-09-30 06:00:00 9.5 0 Calma 4 Oeste 0 -- -- 100
2018-09-30 05:00:00 10.2 2 Sudoeste 5 Oeste 0 -- -- 100
2018-09-30 04:00:00 10.8 0 Calma 4 Este 0 -- -- 100
2018-09-30 03:00:00 11.5 0 Calma 4 Sudoeste 0 -- -- 100
2018-09-30 02:00:00 12 0 Calma 5 Sudoeste 0 -- -- 100
2018-09-30 01:00:00 12.5 0 Calma 5 Sudoeste 0 -- -- 100
2018-09-30 00:00:00 12.8 2 Sur 4 Este 0 -- -- 100
2018-09-29 23:00:00 13.6 0 Calma 5 Noroeste 0 -- -- 97
2018-09-29 22:00:00 13.9 3 Oeste 8 Oeste 0 -- -- 96
2018-09-29 21:00:00 14.4 2 Sudoeste 6 Sudeste 0 -- -- 95
2018-09-29 20:00:00 15.1 0 Calma 9 Noroeste 0 -- -- 93
2018-09-29 19:00:00 16.3 5 Este 10 Este 0 -- -- 88
2018-09-29 18:00:00 19.7 2 Sudeste 7 Sur 0 -- -- 73
2018-09-29 17:00:00 19.9 3 Norte 16 Sur 0 -- -- 61
2018-09-29 16:00:00 22.3 4 Sur 17 Sur 0 -- -- 46
2018-09-29 15:00:00 22 4 Sur 11 Oeste 0 -- -- 53
2018-09-29 14:00:00 21.4 2 Sur 10 Sur 0 -- -- 50
2018-09-29 13:00:00 20.8 4 Sur 21 Nordeste 0 -- -- 48
2018-09-29 12:00:00 18.1 3 Sur 8 Sur 0 -- -- 66
2018-09-29 11:00:00 14.6 3 Sur 8 Sur 0 -- -- 84
2018-09-29 10:00:00 11.1 2 Sur 5 Sudeste 0 -- -- 98
2018-09-29 09:00:00 8.7 0 Calma 3 Este 0 -- -- 98
2018-09-29 08:00:00 8.7 0 Calma 4 Oeste 0 -- -- 98
2018-09-29 07:00:00 8.9 0 Calma 5 Este 0 -- -- 98
2018-09-29 06:00:00 9.8 0 Calma 0 Calma 0 -- -- 90
2018-09-29 05:00:00 10.3 0 Calma 0 Calma 0 -- -- 90
2018-09-29 04:00:00 10.9 0 Calma 0 Calma 0 -- -- 89
2018-09-29 03:00:00 11.8 0 Calma 3 Este 0 -- -- 85
2018-09-29 02:00:00 12.9 0 Calma 3 Oeste 0 -- -- 79
2018-09-29 01:00:00 13.9 0 Calma 4 Este 0 -- -- 75
2018-09-29 00:00:00 16.7 0 Calma 12 Nordeste 0 -- -- 64
2018-09-28 23:00:00 18 6 Nordeste 13 Nordeste 0 -- -- 58
2018-09-28 22:00:00 18.2 4 Norte 15 Oeste 0 -- -- 55
2018-09-28 21:00:00 19.7 8 Noroeste 23 Noroeste 0 -- -- 50
2018-09-28 20:00:00 20.5 7 Norte 19 Norte 0 -- -- 47
2018-09-28 19:00:00 20.2 5 Norte 29 Norte 0 -- -- 48
2018-09-28 18:00:00 25 9 Noroeste 25 Norte 0 -- -- 33
2018-09-28 17:00:00 25.7 10 Norte 31 Norte 0 -- -- 29
2018-09-28 16:00:00 25.8 10 Norte 32 Norte 0 -- -- 26
2018-09-28 15:00:00 26 9 Norte 32 Norte 0 -- -- 23
2018-09-28 14:00:00 24.6 12 Norte 28 Norte 0 -- -- 26
2018-09-28 13:00:00 22.5 8 Norte 20 Nordeste 0 -- -- 32
2018-09-28 12:00:00 14.9 3 Sudoeste 6 Oeste 0 -- -- 68
2018-09-28 11:00:00 11.4 0 Calma 4 Oeste 0 -- -- 92
2018-09-28 10:00:00 7.7 0 Calma 5 Este 0 -- -- 100
2018-09-28 09:00:00 5.3 0 Calma 4 Sudeste 0 -- -- 100
2018-09-28 08:00:00 5.2 0 Calma 4 Sudeste 0 -- -- 100
2018-09-28 07:00:00 5.9 0 Calma 3 Sur 0 -- -- 99
2018-09-28 06:00:00 6.6 0 Calma 5 Sudeste 0 -- -- 96
2018-09-28 05:00:00 7.2 0 Calma 3 Sudeste 0 -- -- 95
2018-09-28 04:00:00 7.8 0 Calma 4 Sur 0 -- -- 94
2018-09-28 03:00:00 8.6 0 Calma 3 Sudeste 0 -- -- 94
2018-09-28 02:00:00 9.3 0 Calma 4 Sur 0 -- -- 93
2018-09-28 01:00:00 10.1 0 Calma 3 Este 0 -- -- 94
2018-09-28 00:00:00 10.9 0 Calma 5 Este 0 -- -- 92
2018-09-27 23:00:00 11.8 0 Calma 5 Oeste 0 -- -- 89
2018-09-27 22:00:00 12.8 0 Calma 4 Sudeste 0 -- -- 88
2018-09-27 21:00:00 14.1 0 Calma 4 Sur 0 -- -- 84
2018-09-27 20:00:00 15.9 0 Calma 6 Noroeste 0 -- -- 77
2018-09-27 19:00:00 18.8 4 Norte 9 Noroeste 0 -- -- 60
2018-09-27 18:00:00 26.2 2 Noroeste 8 Sur 0 -- -- 42
2018-09-27 17:00:00 25.9 2 Sur 9 Sur 0 -- -- 34
2018-09-27 16:00:00 24.7 4 Sur 8 Sur 0 -- -- 37
2018-09-27 15:00:00 22.3 3 Sudeste 6 Sur 0 -- -- 43
2018-09-27 14:00:00 19.5 3 Sur 8 Sur 0 -- -- 46
2018-09-27 13:00:00 16.9 3 Sudeste 9 Sur 0 -- -- 54
2018-09-27 12:00:00 13.9 2 Sur 6 Sur 0 -- -- 68
2018-09-27 11:00:00 10.2 2 Sur 5 Sudeste 0 -- -- 80
2018-09-27 10:00:00 7.6 0 Calma 3 Sudeste 0 -- -- 100
2018-09-27 09:00:00 5.2 0 Calma 2 Sur 0 -- -- 100
2018-09-27 08:00:00 5.5 0 Calma 3 Sudoeste 0 -- -- 100
2018-09-27 07:00:00 5.8 2 Sudoeste 4 Sudoeste 0 -- -- 99
2018-09-27 06:00:00 6.6 0 Calma 2 Sudoeste 0 -- -- 98
2018-09-27 05:00:00 7.2 0 Calma 2 Sur 0 -- -- 97
2018-09-27 04:00:00 7.8 0 Calma 2 Sudoeste 0 -- -- 97
2018-09-27 03:00:00 8.2 0 Calma 4 Sur 0 -- -- 97
2018-09-27 02:00:00 8.8 0 Calma 2 Sur 0 -- -- 97
2018-09-27 01:00:00 9.5 0 Calma 3 Sur 0 -- -- 98
2018-09-27 00:00:00 10.3 0 Calma 4 Sur 0 -- -- 98
2018-09-26 23:00:00 11.9 0 Calma 3 Sudoeste 0 -- -- 88
2018-09-26 22:00:00 13.3 0 Calma 4 Noroeste 0 -- -- 84
2018-09-26 21:00:00 15.8 3 Norte 9 Nordeste 0 -- -- 71
2018-09-26 20:00:00 17.1 2 Norte 6 Norte 0 -- -- 70
2018-09-26 19:00:00 18 2 Sudoeste 15 Sur 0 -- -- 69
2018-09-26 18:00:00 22.6 5 Sur 17 Sur 0 -- -- 51
2018-09-26 17:00:00 23.5 7 Sur 20 Sur 0 -- -- 49
2018-09-26 16:00:00 23.1 8 Sur 23 Sur 0 -- -- 47
2018-09-26 15:00:00 22.5 5 Sur 18 Sur 0 -- -- 51
2018-09-26 14:00:00 21.4 9 Sur 18 Sur 0 -- -- 50
2018-09-26 13:00:00 19.8 6 Sudoeste 16 Sur 0 -- -- 54
2018-09-26 12:00:00 16.7 3 Sur 9 Sur 0 -- -- 72
2018-09-26 11:00:00 14.2 0 Calma 6 Sudeste 0 -- -- 85
2018-09-26 10:00:00 11.2 0 Calma 5 Nordeste 0 -- -- 99
2018-09-26 09:00:00 10.6 0 Calma 4 Sur 0 -- -- 99
2018-09-26 08:00:00 10.8 0 Calma 0 Calma 0 -- -- 100
2018-09-26 07:00:00 11.1 0 Calma 2 Sudeste 0 -- -- 99
2018-09-26 06:00:00 11.6 0 Calma 3 Sudoeste 0 -- -- 92
2018-09-26 05:00:00 12.1 0 Calma 3 Sur 0 -- -- 92
2018-09-26 04:00:00 11.9 0 Calma 3 Norte 0 -- -- 92
2018-09-26 03:00:00 12 0 Calma 5 Nordeste 0 -- -- 90
2018-09-26 02:00:00 12.9 2 Norte 5 Noroeste 0 -- -- 86
2018-09-26 01:00:00 14.2 0 Calma 6 Sudoeste 0 -- -- 84
2018-09-26 00:00:00 15.4 0 Calma 4 Sur 0 -- -- 83
2018-09-25 23:00:00 16 0 Calma 4 Oeste 0 -- -- 79
2018-09-25 22:00:00 16.6 0 Calma 5 Noroeste 0 -- -- 76
2018-09-25 21:00:00 16.9 2 Norte 5 Noroeste 0 -- -- 70
2018-09-25 20:00:00 17.4 0 Calma 6 Sudeste 0 -- -- 67
2018-09-25 19:00:00 17.6 2 Sur 13 Sudoeste 0 -- -- 67
2018-09-25 18:00:00 22.1 7 Sur 19 Sur 0 -- -- 50
2018-09-25 17:00:00 23 7 Sur 20 Sudoeste 0 -- -- 47
2018-09-25 16:00:00 23.6 8 Sur 22 Sudoeste 0 -- -- 48
2018-09-25 15:00:00 22.7 6 Sur 18 Sur 0 -- -- 48
2018-09-25 14:00:00 20.1 4 Sur 13 Sur 0 -- -- 54
2018-09-25 13:00:00 16.7 2 Oeste 9 Sur 0 -- -- 51
2018-09-25 12:00:00 14.1 3 Sudeste 7 Sudoeste 0 -- -- 56
2018-09-25 11:00:00 10.6 0 Calma 0 Calma 0 -- -- 70
2018-09-25 10:00:00 7 0 Calma 0 Calma 0 -- -- 97
2018-09-25 09:00:00 4.6 0 Calma 0 Calma 0 -- -- 99
2018-09-25 08:00:00 4.7 0 Calma 0 Calma 0 -- -- 100
2018-09-25 07:00:00 5.2 0 Calma 0 Calma 0 -- -- 98
2018-09-25 06:00:00 6.1 0 Calma 3 Sur 0 -- -- 91
2018-09-25 05:00:00 6.9 0 Calma 2 Sudoeste 0 -- -- 88
2018-09-25 04:00:00 7.6 0 Calma 3 Sur 0 -- -- 86
2018-09-25 03:00:00 8.7 0 Calma 3 Sur 0 -- -- 83
2018-09-25 02:00:00 9.9 0 Calma 4 Sur 0 -- -- 77
2018-09-25 01:00:00 11.8 2 Sudeste 9 Nordeste 0 -- -- 67
2018-09-25 00:00:00 14.5 4 Nordeste 21 Nordeste 0 -- -- 56
2018-09-24 23:00:00 15.4 7 Nordeste 20 Nordeste 0 -- -- 54
2018-09-24 22:00:00 16.2 5 Norte 20 Noroeste 0 -- -- 51
2018-09-24 21:00:00 17.3 6 Nordeste 27 Noroeste 0 -- -- 50
2018-09-24 20:00:00 18.7 6 Norte 22 Norte 0 -- -- 47
2018-09-24 19:00:00 19.3 6 Norte 28 Norte 0 -- -- 49
2018-09-24 18:00:00 23.6 11 Norte 32 Noroeste 0 -- -- 36
2018-09-24 17:00:00 25.2 13 Norte 31 Noroeste 0 -- -- 28
2018-09-24 16:00:00 25.5 14 Norte 32 Norte 0 -- -- 23
2018-09-24 15:00:00 25.6 13 Norte 32 Norte 0 -- -- 23
2018-09-24 14:00:00 24.4 10 Norte 32 Norte 0 -- -- 25
2018-09-24 13:00:00 23.4 11 Noroeste 26 Norte 0 -- -- 33
2018-09-24 12:00:00 22.1 9 Norte 26 Noroeste 0 -- -- 42
2018-09-24 11:00:00 20.3 6 Norte 18 Noroeste 0 -- -- 54
2018-09-24 10:00:00 15.5 0 Calma 0 Calma 0 -- -- 84
2018-09-24 09:00:00 13.3 0 Calma 0 Calma 0 -- -- 90
2018-09-24 08:00:00 12.6 0 Calma 2 Sudeste 0 -- -- 93
2018-09-24 07:00:00 11.8 0 Calma 9 Norte 0 -- -- 93
2018-09-24 06:00:00 13.4 3 Nordeste 9 Norte 0 -- -- 83
2018-09-24 05:00:00 11.2 0 Calma 4 Oeste 0 -- -- 94
2018-09-24 04:00:00 12 0 Calma 4 Oeste 0 -- -- 93
2018-09-24 03:00:00 12.7 0 Calma 4 Este 0 -- -- 91
2018-09-24 02:00:00 13.7 0 Calma 4 Noroeste 0 -- -- 88
2018-09-24 01:00:00 14.4 0 Calma 6 Norte 0 -- -- 86
2018-09-24 00:00:00 14.8 0 Calma 4 Sudeste 0 -- -- 87
2018-09-23 23:00:00 18.1 0 Calma 9 Nordeste 0 -- -- 68
2018-09-23 22:00:00 20.3 2 Norte 9 Norte 0 -- -- 59
2018-09-23 21:00:00 21.2 2 Norte 13 Noroeste 0 -- -- 57
2018-09-23 20:00:00 22.8 4 Norte 19 Noroeste 0 -- -- 52
2018-09-23 19:00:00 23.8 8 Norte 26 Noroeste 0 -- -- 50
2018-09-23 18:00:00 28.2 9 Noroeste 24 Noroeste 0 -- -- 40
2018-09-23 17:00:00 29.5 11 Noroeste 25 Noroeste 0 -- -- 37
2018-09-23 16:00:00 29.3 6 Oeste 16 Sur 0 -- -- 38
2018-09-23 15:00:00 27.6 5 Sur 11 Sur 0 -- -- 43
2018-09-23 14:00:00 24.3 3 Sudeste 9 Sudeste 0 -- -- 51
2018-09-23 13:00:00 21.7 3 Sur 8 Sur 0 -- -- 61
2018-09-23 12:00:00 18.3 3 Sur 5 Sur 0 -- -- 70
2018-09-23 11:00:00 15.3 2 Sudeste 4 Sur 0 -- -- 87
2018-09-23 10:00:00 11.5 0 Calma 4 Este 0 -- -- 100
2018-09-23 09:00:00 9.3 0 Calma 3 Este 0 -- -- 100
2018-09-23 08:00:00 9.3 0 Calma 3 Sur 0 -- -- 100
2018-09-23 07:00:00 9.6 0 Calma 3 Este 0 -- -- 99
2018-09-23 06:00:00 10.4 0 Calma 3 Oeste 0 -- -- 95
2018-09-23 05:00:00 10.9 0 Calma 3 Sur 0 -- -- 94
2018-09-23 04:00:00 11.6 2 Norte 4 Sur 0 -- -- 94
2018-09-23 03:00:00 12.5 0 Calma 3 Noroeste 0 -- -- 92
2018-09-23 02:00:00 13.1 0 Calma 3 Norte 0 -- -- 89
2018-09-23 01:00:00 14.2 0 Calma 4 Oeste 0 -- -- 88
2018-09-23 00:00:00 15.3 0 Calma 3 Este 0 -- -- 84
2018-09-22 23:00:00 16.7 0 Calma 3 Norte 0 -- -- 78
2018-09-22 22:00:00 18.7 0 Calma 7 Sur 0 -- -- 70
2018-09-22 21:00:00 21.6 3 Nordeste 11 Nordeste 0 -- -- 59
2018-09-22 20:00:00 22.6 2 Nordeste 19 Oeste 0 -- -- 55
2018-09-22 19:00:00 23.5 6 Norte 20 Noroeste 0 -- -- 53
2018-09-22 18:00:00 27.9 9 Noroeste 21 Noroeste 0 -- -- 38
2018-09-22 17:00:00 29 9 Noroeste 22 Norte 0 -- -- 34
2018-09-22 16:00:00 28.9 6 Noroeste 16 Noroeste 0 -- -- 34
2018-09-22 15:00:00 26.1 5 Sur 10 Sudoeste 0 -- -- 49
2018-09-22 14:00:00 22.9 3 Sur 9 Sur 0 -- -- 63
2018-09-22 13:00:00 20.4 3 Sur 7 Sur 0 -- -- 64
2018-09-22 12:00:00 17.8 3 Sudoeste 7 Sur 0 -- -- 71
2018-09-22 11:00:00 14.7 2 Sudoeste 5 Sur 0 -- -- 87
2018-09-22 10:00:00 11.5 0 Calma 6 Sudeste 0 -- -- 100
2018-09-22 09:00:00 10.1 0 Calma 3 Sur 0 -- -- 100
2018-09-22 08:00:00 9.9 0 Calma 4 Sudeste 0 -- -- 100
2018-09-22 07:00:00 10.4 0 Calma 4 Sudeste 0 -- -- 100
2018-09-22 06:00:00 11.3 0 Calma 3 Este 0 -- -- 95
2018-09-22 05:00:00 11.9 0 Calma 4 Oeste 0 -- -- 93
2018-09-22 04:00:00 12.8 0 Calma 4 Nordeste 0 -- -- 93
2018-09-22 03:00:00 13.6 0 Calma 3 Sur 0 -- -- 91
2018-09-22 02:00:00 14.6 2 Norte 4 Norte 0 -- -- 88
2018-09-22 01:00:00 15.9 0 Calma 5 Nordeste 0 -- -- 84
2018-09-22 00:00:00 17.1 2 Noroeste 11 Nordeste 0 -- -- 78
2018-09-21 23:00:00 19.2 5 Este 12 Este 0 -- -- 67
2018-09-21 22:00:00 19.3 3 Nordeste 15 Nordeste 0 -- -- 67
2018-09-21 21:00:00 19.9 5 Nordeste 25 Norte 0 -- -- 64
2018-09-21 20:00:00 20.6 10 Norte 31 Noroeste 0 -- -- 62
2018-09-21 19:00:00 21.1 14 Norte 36 Norte 0 -- -- 64
2018-09-21 18:00:00 23.2 3 Norte 7 Norte 0 -- -- 68
2018-09-21 17:00:00 23.3 3 Norte 7 Noroeste 0 -- -- 66
2018-09-21 16:00:00 22.9 3 Norte 6 Norte 0 -- -- 65
2018-09-21 15:00:00 23.1 3 Norte 8 Norte 0 -- -- 63
2018-09-21 14:00:00 22 3 Norte 5 Norte 0 -- -- 64
2018-09-21 13:00:00 19.7 2 Sur 8 Oeste 0 -- -- 73
2018-09-21 12:00:00 18 3 Sur 5 Sur 0 -- -- 74
2018-09-21 11:00:00 14.9 0 Calma 4 Nordeste 0 -- -- 87
2018-09-21 10:00:00 11.7 0 Calma 2 Nordeste 0 -- -- 100
2018-09-21 09:00:00 9.4 0 Calma 3 Sur 0 -- -- 100
2018-09-21 08:00:00 9.4 0 Calma 3 Sudoeste 0 -- -- 100
2018-09-21 07:00:00 9.8 0 Calma 4 Sur 0 -- -- 100
2018-09-21 06:00:00 10.2 0 Calma 4 Sur 0 -- -- 99
2018-09-21 05:00:00 10.5 0 Calma 2 Sur 0 -- -- 98
2018-09-21 04:00:00 11.1 0 Calma 3 Sur 0 -- -- 98
2018-09-21 03:00:00 11.6 0 Calma 4 Noroeste 0 -- -- 98
2018-09-21 02:00:00 11.9 0 Calma 4 Oeste 0 -- -- 98
2018-09-21 01:00:00 12.7 0 Calma 4 Sudoeste 0 -- -- 99
2018-09-21 00:00:00 13.5 0 Calma 4 Norte 0 -- -- 99
2018-09-20 23:00:00 14.6 2 Sur 5 Noroeste 0 -- -- 93
2018-09-20 22:00:00 15.6 0 Calma 4 Oeste 0 -- -- 92
2018-09-20 21:00:00 17 0 Calma 4 Sur 0 -- -- 90
2018-09-20 20:00:00 18.3 0 Calma 5 Norte 0 -- -- 85
2018-09-20 19:00:00 19.7 4 Norte 10 Norte 0 -- -- 78
2018-09-20 18:00:00 23.6 3 Nordeste 11 Sur 0 -- -- 57
2018-09-20 17:00:00 27.1 5 Sur 18 Sudeste 0 -- -- 46
2018-09-20 16:00:00 26.9 6 Sur 16 Sudoeste 0 -- -- 45
2018-09-20 15:00:00 24.9 5 Sur 12 Sur 0 -- -- 45
2018-09-20 14:00:00 21.7 4 Sudoeste 8 Sur 0 -- -- 57
2018-09-20 13:00:00 19.2 3 Sur 6 Sur 0 -- -- 59
2018-09-20 12:00:00 16.2 2 Sur 7 Sur 0 -- -- 75
2018-09-20 11:00:00 13.2 2 Sudeste 4 Sudeste 0 -- -- 89
2018-09-20 10:00:00 10.2 0 Calma 2 Nordeste 0 -- -- 100
2018-09-20 09:00:00 8.1 0 Calma 2 Sur 0 -- -- 100
2018-09-20 08:00:00 8.1 0 Calma 2 Oeste 0 -- -- 100
2018-09-20 07:00:00 8.6 0 Calma 2 Sur 0 -- -- 100
2018-09-20 06:00:00 9.4 0 Calma 2 Sur 0 -- -- 97
2018-09-20 05:00:00 10 0 Calma 4 Sur 0 -- -- 97
2018-09-20 04:00:00 10.5 2 Sur 4 Sur 0 -- -- 96
2018-09-20 03:00:00 11.1 0 Calma 3 Sudeste 0 -- -- 95
2018-09-20 02:00:00 11.8 0 Calma 3 Norte 0 -- -- 95
2018-09-20 01:00:00 12.6 2 Sur 4 Sudoeste 0 -- -- 94
2018-09-20 00:00:00 13.4 0 Calma 4 Este 0 -- -- 93